sensor_id;sensor_type;location;lat;lon;timestamp;P1;durP1;ratioP1;P2;durP2;ratioP2
71646;SDS011;59706;45.634;11.704;2023-04-25T00:01:03;6.50;;;2.70;;
71646;SDS011;59706;45.634;11.704;2023-04-25T00:03:31;6.90;;;2.90;;
71646;SDS011;59706;45.634;11.704;2023-04-25T00:05:59;7.00;;;3.00;;
71646;SDS011;59706;45.634;11.704;2023-04-25T00:08:31;7.30;;;3.00;;
71646;SDS011;59706;45.634;11.704;2023-04-25T00:11:00;6.90;;;2.90;;
71646;SDS011;59706;45.634;11.704;2023-04-25T00:13:28;6.90;;;2.80;;
71646;SDS011;59706;45.634;11.704;2023-04-25T00:15:56;6.70;;;3.00;;
71646;SDS011;59706;45.634;11.704;2023-04-25T00:18:23;6.80;;;3.10;;
71646;SDS011;59706;45.634;11.704;2023-04-25T00:20:51;6.80;;;2.80;;
71646;SDS011;59706;45.634;11.704;2023-04-25T00:23:18;6.40;;;2.60;;
71646;SDS011;59706;45.634;11.704;2023-04-25T03:12:31;5.10;;;1.70;;
71646;SDS011;59706;45.634;11.704;2023-04-25T03:14:58;6.40;;;1.70;;
71646;SDS011;59706;45.634;11.704;2023-04-25T03:17:25;5.50;;;1.70;;
71646;SDS011;59706;45.634;11.704;2023-04-25T03:19:54;4.70;;;1.50;;
71646;SDS011;59706;45.634;11.704;2023-04-25T03:22:22;4.90;;;1.50;;
71646;SDS011;59706;45.634;11.704;2023-04-25T03:24:50;4.70;;;1.40;;
71646;SDS011;59706;45.634;11.704;2023-04-25T03:27:18;5.60;;;1.50;;
71646;SDS011;59706;45.634;11.704;2023-04-25T03:29:45;5.20;;;1.60;;
71646;SDS011;59706;45.634;11.704;2023-04-25T03:32:13;4.60;;;1.40;;
71646;SDS011;59706;45.634;11.704;2023-04-25T03:34:40;4.80;;;1.60;;
71646;SDS011;59706;45.634;11.704;2023-04-25T03:37:07;4.40;;;1.10;;
71646;SDS011;59706;45.634;11.704;2023-04-25T03:39:35;4.70;;;1.10;;
71646;SDS011;59706;45.634;11.704;2023-04-25T03:42:03;4.90;;;1.40;;
71646;SDS011;59706;45.634;11.704;2023-04-25T03:44:31;4.90;;;1.90;;
71646;SDS011;59706;45.634;11.704;2023-04-25T03:46:58;5.10;;;1.60;;
71646;SDS011;59706;45.634;11.704;2023-04-25T03:49:26;5.10;;;1.40;;
71646;SDS011;59706;45.634;11.704;2023-04-25T03:51:55;4.80;;;1.40;;
71646;SDS011;59706;45.634;11.704;2023-04-25T03:54:22;4.70;;;1.60;;
71646;SDS011;59706;45.634;11.704;2023-04-25T03:56:50;4.60;;;1.60;;
71646;SDS011;59706;45.634;11.704;2023-04-25T03:59:17;4.90;;;1.60;;
71646;SDS011;59706;45.634;11.704;2023-04-25T04:01:44;4.50;;;1.30;;
71646;SDS011;59706;45.634;11.704;2023-04-25T04:04:12;5.30;;;1.70;;
71646;SDS011;59706;45.634;11.704;2023-04-25T04:06:39;5.60;;;1.50;;
71646;SDS011;59706;45.634;11.704;2023-04-25T04:09:07;8.00;;;1.80;;
71646;SDS011;59706;45.634;11.704;2023-04-25T04:11:37;6.50;;;2.60;;
71646;SDS011;59706;45.634;11.704;2023-04-25T04:14:07;15.90;;;6.70;;
71646;SDS011;59706;45.634;11.704;2023-04-25T04:16:36;19.40;;;8.10;;
71646;SDS011;59706;45.634;11.704;2023-04-25T04:19:02;11.10;;;4.20;;
71646;SDS011;59706;45.634;11.704;2023-04-25T04:21:29;7.90;;;3.10;;
71646;SDS011;59706;45.634;11.704;2023-04-25T04:23:57;7.50;;;2.30;;
71646;SDS011;59706;45.634;11.704;2023-04-25T04:26:25;6.30;;;1.70;;
71646;SDS011;59706;45.634;11.704;2023-04-25T04:28:53;7.40;;;1.90;;
71646;SDS011;59706;45.634;11.704;2023-04-25T04:31:23;5.70;;;1.90;;
71646;SDS011;59706;45.634;11.704;2023-04-25T04:33:51;6.10;;;2.00;;
71646;SDS011;59706;45.634;11.704;2023-04-25T04:36:19;5.40;;;2.00;;
71646;SDS011;59706;45.634;11.704;2023-04-25T04:38:48;6.20;;;2.10;;
71646;SDS011;59706;45.634;11.704;2023-04-25T04:41:16;7.70;;;2.50;;
71646;SDS011;59706;45.634;11.704;2023-04-25T04:43:43;8.70;;;3.40;;
71646;SDS011;59706;45.634;11.704;2023-04-25T04:46:11;8.50;;;3.90;;
71646;SDS011;59706;45.634;11.704;2023-04-25T04:48:38;8.40;;;3.60;;
71646;SDS011;59706;45.634;11.704;2023-04-25T04:51:06;7.30;;;2.70;;
71646;SDS011;59706;45.634;11.704;2023-04-25T04:53:34;7.60;;;3.20;;
71646;SDS011;59706;45.634;11.704;2023-04-25T04:56:01;7.90;;;2.80;;
71646;SDS011;59706;45.634;11.704;2023-04-25T04:58:28;7.20;;;2.80;;
71646;SDS011;59706;45.634;11.704;2023-04-25T05:00:55;7.00;;;2.20;;
71646;SDS011;59706;45.634;11.704;2023-04-25T05:03:22;5.10;;;1.80;;
71646;SDS011;59706;45.634;11.704;2023-04-25T05:05:49;5.80;;;1.90;;
71646;SDS011;59706;45.634;11.704;2023-04-25T05:08:17;5.40;;;2.00;;
71646;SDS011;59706;45.634;11.704;2023-04-25T05:10:44;7.00;;;2.10;;
71646;SDS011;59706;45.634;11.704;2023-04-25T05:13:11;6.30;;;2.20;;
71646;SDS011;59706;45.634;11.704;2023-04-25T05:15:39;5.50;;;1.90;;
71646;SDS011;59706;45.634;11.704;2023-04-25T05:18:06;6.50;;;2.10;;
71646;SDS011;59706;45.634;11.704;2023-04-25T05:20:34;7.20;;;2.70;;
71646;SDS011;59706;45.634;11.704;2023-04-25T05:23:01;5.70;;;2.30;;
71646;SDS011;59706;45.634;11.704;2023-04-25T05:25:29;6.10;;;2.00;;
71646;SDS011;59706;45.634;11.704;2023-04-25T05:27:57;5.50;;;2.10;;
71646;SDS011;59706;45.634;11.704;2023-04-25T05:30:23;5.90;;;1.80;;
71646;SDS011;59706;45.634;11.704;2023-04-25T05:32:52;5.20;;;1.90;;
71646;SDS011;59706;45.634;11.704;2023-04-25T05:35:19;6.20;;;2.50;;
71646;SDS011;59706;45.634;11.704;2023-04-25T05:37:46;6.30;;;2.10;;
71646;SDS011;59706;45.634;11.704;2023-04-25T05:40:14;6.70;;;2.00;;
71646;SDS011;59706;45.634;11.704;2023-04-25T05:42:42;6.90;;;2.30;;
71646;SDS011;59706;45.634;11.704;2023-04-25T05:45:09;5.90;;;2.00;;
71646;SDS011;59706;45.634;11.704;2023-04-25T05:47:37;6.50;;;2.20;;
71646;SDS011;59706;45.634;11.704;2023-04-25T05:50:07;6.20;;;2.10;;
71646;SDS011;59706;45.634;11.704;2023-04-25T05:52:35;5.50;;;2.10;;
71646;SDS011;59706;45.634;11.704;2023-04-25T05:55:03;5.40;;;1.90;;
71646;SDS011;59706;45.634;11.704;2023-04-25T05:57:33;6.30;;;2.00;;
71646;SDS011;59706;45.634;11.704;2023-04-25T06:00:02;6.40;;;2.20;;
71646;SDS011;59706;45.634;11.704;2023-04-25T06:02:34;5.90;;;2.10;;
71646;SDS011;59706;45.634;11.704;2023-04-25T06:05:02;5.50;;;1.70;;
71646;SDS011;59706;45.634;11.704;2023-04-25T06:07:30;5.60;;;1.70;;
71646;SDS011;59706;45.634;11.704;2023-04-25T06:09:57;5.70;;;2.00;;
71646;SDS011;59706;45.634;11.704;2023-04-25T06:12:26;6.50;;;1.80;;
71646;SDS011;59706;45.634;11.704;2023-04-25T06:14:53;6.10;;;1.60;;
71646;SDS011;59706;45.634;11.704;2023-04-25T06:17:20;8.20;;;1.80;;
71646;SDS011;59706;45.634;11.704;2023-04-25T06:19:47;6.80;;;1.80;;
71646;SDS011;59706;45.634;11.704;2023-04-25T06:22:15;5.40;;;1.80;;
71646;SDS011;59706;45.634;11.704;2023-04-25T06:24:42;7.70;;;1.70;;
71646;SDS011;59706;45.634;11.704;2023-04-25T06:27:10;6.10;;;1.50;;
71646;SDS011;59706;45.634;11.704;2023-04-25T06:29:37;6.10;;;1.40;;
71646;SDS011;59706;45.634;11.704;2023-04-25T06:32:06;5.10;;;1.40;;
71646;SDS011;59706;45.634;11.704;2023-04-25T06:34:33;4.90;;;1.40;;
71646;SDS011;59706;45.634;11.704;2023-04-25T06:37:01;4.70;;;1.30;;
71646;SDS011;59706;45.634;11.704;2023-04-25T06:39:28;5.60;;;1.30;;
71646;SDS011;59706;45.634;11.704;2023-04-25T06:41:55;5.40;;;1.30;;
71646;SDS011;59706;45.634;11.704;2023-04-25T06:44:23;4.10;;;1.10;;
71646;SDS011;59706;45.634;11.704;2023-04-25T06:46:51;6.00;;;2.30;;
71646;SDS011;59706;45.634;11.704;2023-04-25T06:49:18;8.20;;;2.90;;
71646;SDS011;59706;45.634;11.704;2023-04-25T06:51:46;5.80;;;1.90;;
71646;SDS011;59706;45.634;11.704;2023-04-25T06:54:14;5.70;;;1.60;;
71646;SDS011;59706;45.634;11.704;2023-04-25T06:56:41;5.00;;;1.50;;
71646;SDS011;59706;45.634;11.704;2023-04-25T06:59:08;4.90;;;1.40;;
71646;SDS011;59706;45.634;11.704;2023-04-25T07:01:35;5.00;;;1.20;;
71646;SDS011;59706;45.634;11.704;2023-04-25T07:04:03;4.30;;;1.10;;
71646;SDS011;59706;45.634;11.704;2023-04-25T07:06:30;4.80;;;1.00;;
71646;SDS011;59706;45.634;11.704;2023-04-25T07:08:57;4.40;;;0.90;;
71646;SDS011;59706;45.634;11.704;2023-04-25T07:11:25;4.20;;;1.10;;
71646;SDS011;59706;45.634;11.704;2023-04-25T07:13:52;6.60;;;1.40;;
71646;SDS011;59706;45.634;11.704;2023-04-25T07:16:19;5.80;;;1.80;;
71646;SDS011;59706;45.634;11.704;2023-04-25T07:18:47;4.70;;;1.20;;
71646;SDS011;59706;45.634;11.704;2023-04-25T07:21:15;6.10;;;1.50;;
71646;SDS011;59706;45.634;11.704;2023-04-25T07:23:42;5.50;;;1.40;;
71646;SDS011;59706;45.634;11.704;2023-04-25T07:26:10;6.80;;;1.50;;
71646;SDS011;59706;45.634;11.704;2023-04-25T07:28:36;6.10;;;1.50;;
71646;SDS011;59706;45.634;11.704;2023-04-25T07:31:03;5.40;;;1.40;;
71646;SDS011;59706;45.634;11.704;2023-04-25T07:33:31;5.00;;;1.10;;
71646;SDS011;59706;45.634;11.704;2023-04-25T07:35:58;4.40;;;1.20;;
71646;SDS011;59706;45.634;11.704;2023-04-25T07:38:26;4.60;;;1.50;;
71646;SDS011;59706;45.634;11.704;2023-04-25T07:40:53;5.00;;;1.20;;
71646;SDS011;59706;45.634;11.704;2023-04-25T07:43:20;4.30;;;1.00;;
71646;SDS011;59706;45.634;11.704;2023-04-25T07:45:48;5.50;;;1.40;;
71646;SDS011;59706;45.634;11.704;2023-04-25T07:48:19;4.50;;;1.40;;
71646;SDS011;59706;45.634;11.704;2023-04-25T07:50:46;5.00;;;1.40;;
71646;SDS011;59706;45.634;11.704;2023-04-25T07:53:14;6.40;;;1.80;;
71646;SDS011;59706;45.634;11.704;2023-04-25T07:55:41;5.20;;;1.90;;
71646;SDS011;59706;45.634;11.704;2023-04-25T07:58:08;5.60;;;1.50;;
71646;SDS011;59706;45.634;11.704;2023-04-25T08:00:36;6.90;;;1.90;;
71646;SDS011;59706;45.634;11.704;2023-04-25T08:03:03;7.10;;;2.50;;
71646;SDS011;59706;45.634;11.704;2023-04-25T08:05:30;6.60;;;2.80;;
71646;SDS011;59706;45.634;11.704;2023-04-25T08:07:58;7.50;;;2.60;;
71646;SDS011;59706;45.634;11.704;2023-04-25T08:10:25;7.90;;;2.30;;
71646;SDS011;59706;45.634;11.704;2023-04-25T08:12:53;6.10;;;2.10;;
71646;SDS011;59706;45.634;11.704;2023-04-25T08:15:20;7.30;;;1.70;;
71646;SDS011;59706;45.634;11.704;2023-04-25T08:17:48;5.40;;;1.70;;
71646;SDS011;59706;45.634;11.704;2023-04-25T08:20:15;7.20;;;2.80;;
71646;SDS011;59706;45.634;11.704;2023-04-25T08:22:43;7.30;;;2.80;;
71646;SDS011;59706;45.634;11.704;2023-04-25T08:25:11;7.50;;;3.10;;
71646;SDS011;59706;45.634;11.704;2023-04-25T08:27:38;7.40;;;2.80;;
71646;SDS011;59706;45.634;11.704;2023-04-25T08:30:08;7.10;;;2.90;;
71646;SDS011;59706;45.634;11.704;2023-04-25T08:32:36;6.20;;;1.90;;
71646;SDS011;59706;45.634;11.704;2023-04-25T08:35:05;5.70;;;2.10;;
71646;SDS011;59706;45.634;11.704;2023-04-25T08:37:33;6.00;;;2.10;;
71646;SDS011;59706;45.634;11.704;2023-04-25T08:40:03;5.70;;;2.00;;
71646;SDS011;59706;45.634;11.704;2023-04-25T08:42:33;6.50;;;2.00;;
71646;SDS011;59706;45.634;11.704;2023-04-25T08:45:01;6.30;;;2.20;;
71646;SDS011;59706;45.634;11.704;2023-04-25T08:47:30;6.00;;;2.50;;
71646;SDS011;59706;45.634;11.704;2023-04-25T08:49:59;6.60;;;2.50;;
71646;SDS011;59706;45.634;11.704;2023-04-25T08:52:35;5.90;;;2.10;;
71646;SDS011;59706;45.634;11.704;2023-04-25T08:55:08;7.20;;;2.00;;
71646;SDS011;59706;45.634;11.704;2023-04-25T08:57:36;6.20;;;2.10;;
71646;SDS011;59706;45.634;11.704;2023-04-25T09:00:05;6.60;;;2.50;;
71646;SDS011;59706;45.634;11.704;2023-04-25T09:02:35;6.40;;;2.50;;
71646;SDS011;59706;45.634;11.704;2023-04-25T09:05:05;6.80;;;2.10;;
71646;SDS011;59706;45.634;11.704;2023-04-25T09:07:35;5.70;;;2.00;;
71646;SDS011;59706;45.634;11.704;2023-04-25T09:10:04;4.20;;;1.10;;
71646;SDS011;59706;45.634;11.704;2023-04-25T09:12:33;4.10;;;1.00;;
71646;SDS011;59706;45.634;11.704;2023-04-25T09:15:09;4.90;;;1.10;;
71646;SDS011;59706;45.634;11.704;2023-04-25T09:17:41;4.90;;;1.40;;
71646;SDS011;59706;45.634;11.704;2023-04-25T09:20:12;4.00;;;0.90;;
71646;SDS011;59706;45.634;11.704;2023-04-25T09:22:39;4.50;;;1.20;;
71646;SDS011;59706;45.634;11.704;2023-04-25T09:25:10;5.80;;;2.20;;
71646;SDS011;59706;45.634;11.704;2023-04-25T09:27:50;5.10;;;1.50;;
71646;SDS011;59706;45.634;11.704;2023-04-25T09:30:18;4.20;;;1.10;;
71646;SDS011;59706;45.634;11.704;2023-04-25T09:33:05;5.90;;;1.50;;
71646;SDS011;59706;45.634;11.704;2023-04-25T09:35:40;5.40;;;1.30;;
71646;SDS011;59706;45.634;11.704;2023-04-25T09:38:44;4.50;;;1.00;;
71646;SDS011;59706;45.634;11.704;2023-04-25T09:41:12;4.10;;;0.90;;
71646;SDS011;59706;45.634;11.704;2023-04-25T09:43:39;4.60;;;1.10;;
71646;SDS011;59706;45.634;11.704;2023-04-25T09:46:12;3.20;;;0.80;;
71646;SDS011;59706;45.634;11.704;2023-04-25T09:48:39;4.40;;;1.00;;
71646;SDS011;59706;45.634;11.704;2023-04-25T09:51:11;3.60;;;0.90;;
71646;SDS011;59706;45.634;11.704;2023-04-25T09:53:43;5.60;;;1.30;;
71646;SDS011;59706;45.634;11.704;2023-04-25T09:56:12;6.40;;;2.50;;
71646;SDS011;59706;45.634;11.704;2023-04-25T09:58:40;3.20;;;0.90;;
71646;SDS011;59706;45.634;11.704;2023-04-25T10:01:09;4.90;;;1.30;;
71646;SDS011;59706;45.634;11.704;2023-04-25T10:03:39;4.20;;;1.10;;
71646;SDS011;59706;45.634;11.704;2023-04-25T10:06:17;4.50;;;1.20;;
71646;SDS011;59706;45.634;11.704;2023-04-25T10:08:45;4.30;;;1.40;;
71646;SDS011;59706;45.634;11.704;2023-04-25T10:11:17;4.50;;;1.30;;
71646;SDS011;59706;45.634;11.704;2023-04-25T10:13:44;3.90;;;0.90;;
71646;SDS011;59706;45.634;11.704;2023-04-25T10:16:11;4.10;;;0.90;;
71646;SDS011;59706;45.634;11.704;2023-04-25T10:18:38;4.60;;;1.30;;
71646;SDS011;59706;45.634;11.704;2023-04-25T10:21:06;4.20;;;1.30;;
71646;SDS011;59706;45.634;11.704;2023-04-25T10:23:33;4.40;;;1.40;;
71646;SDS011;59706;45.634;11.704;2023-04-25T10:26:01;5.30;;;1.50;;
71646;SDS011;59706;45.634;11.704;2023-04-25T10:28:27;7.60;;;1.40;;
71646;SDS011;59706;45.634;11.704;2023-04-25T10:31:02;4.20;;;0.90;;
71646;SDS011;59706;45.634;11.704;2023-04-25T10:33:40;3.80;;;0.80;;
71646;SDS011;59706;45.634;11.704;2023-04-25T10:38:37;4.30;;;1.10;;
71646;SDS011;59706;45.634;11.704;2023-04-25T10:41:08;4.30;;;1.30;;
71646;SDS011;59706;45.634;11.704;2023-04-25T10:43:36;4.30;;;1.30;;
71646;SDS011;59706;45.634;11.704;2023-04-25T10:46:36;4.90;;;1.60;;
71646;SDS011;59706;45.634;11.704;2023-04-25T10:49:03;4.30;;;1.10;;
71646;SDS011;59706;45.634;11.704;2023-04-25T10:51:31;4.30;;;0.90;;
71646;SDS011;59706;45.634;11.704;2023-04-25T10:54:07;4.30;;;1.30;;
71646;SDS011;59706;45.634;11.704;2023-04-25T10:56:38;5.50;;;1.30;;
71646;SDS011;59706;45.634;11.704;2023-04-25T10:59:07;6.10;;;1.30;;
71646;SDS011;59706;45.634;11.704;2023-04-25T11:01:46;4.10;;;1.10;;
71646;SDS011;59706;45.634;11.704;2023-04-25T11:04:30;4.10;;;1.00;;
71646;SDS011;59706;45.634;11.704;2023-04-25T11:09:52;4.20;;;0.90;;
71646;SDS011;59706;45.634;11.704;2023-04-25T11:12:20;4.10;;;0.90;;
71646;SDS011;59706;45.634;11.704;2023-04-25T11:14:47;4.10;;;1.20;;
71646;SDS011;59706;45.634;11.704;2023-04-25T11:17:14;4.10;;;1.10;;
71646;SDS011;59706;45.634;11.704;2023-04-25T11:19:41;4.30;;;1.10;;
71646;SDS011;59706;45.634;11.704;2023-04-25T11:22:10;4.30;;;1.10;;
71646;SDS011;59706;45.634;11.704;2023-04-25T11:24:37;4.10;;;1.10;;
71646;SDS011;59706;45.634;11.704;2023-04-25T11:27:04;4.80;;;1.40;;
71646;SDS011;59706;45.634;11.704;2023-04-25T11:29:34;5.00;;;1.30;;
71646;SDS011;59706;45.634;11.704;2023-04-25T11:32:01;3.90;;;1.00;;
71646;SDS011;59706;45.634;11.704;2023-04-25T11:34:30;4.90;;;1.30;;
71646;SDS011;59706;45.634;11.704;2023-04-25T11:36:58;6.00;;;2.10;;
71646;SDS011;59706;45.634;11.704;2023-04-25T11:39:26;4.70;;;1.40;;
71646;SDS011;59706;45.634;11.704;2023-04-25T11:41:54;4.40;;;1.20;;
71646;SDS011;59706;45.634;11.704;2023-04-25T11:44:22;4.40;;;1.20;;
71646;SDS011;59706;45.634;11.704;2023-04-25T11:46:50;5.60;;;1.50;;
71646;SDS011;59706;45.634;11.704;2023-04-25T11:49:17;4.70;;;1.30;;
71646;SDS011;59706;45.634;11.704;2023-04-25T11:51:46;4.20;;;1.40;;
71646;SDS011;59706;45.634;11.704;2023-04-25T11:54:14;4.80;;;1.30;;
71646;SDS011;59706;45.634;11.704;2023-04-25T11:56:44;4.50;;;1.30;;
71646;SDS011;59706;45.634;11.704;2023-04-25T11:59:11;4.70;;;1.40;;
71646;SDS011;59706;45.634;11.704;2023-04-25T12:01:40;4.50;;;1.00;;
71646;SDS011;59706;45.634;11.704;2023-04-25T12:06:51;3.80;;;1.20;;
71646;SDS011;59706;45.634;11.704;2023-04-25T12:09:30;4.50;;;1.20;;
71646;SDS011;59706;45.634;11.704;2023-04-25T12:11:59;3.70;;;1.10;;
71646;SDS011;59706;45.634;11.704;2023-04-25T12:14:32;4.00;;;1.20;;
71646;SDS011;59706;45.634;11.704;2023-04-25T12:17:00;3.60;;;0.90;;
71646;SDS011;59706;45.634;11.704;2023-04-25T12:19:36;3.60;;;0.80;;
71646;SDS011;59706;45.634;11.704;2023-04-25T12:22:23;4.00;;;1.10;;
71646;SDS011;59706;45.634;11.704;2023-04-25T12:25:39;3.20;;;0.80;;
71646;SDS011;59706;45.634;11.704;2023-04-25T12:28:19;4.00;;;1.00;;
71646;SDS011;59706;45.634;11.704;2023-04-25T12:33:35;4.00;;;1.00;;
71646;SDS011;59706;45.634;11.704;2023-04-25T12:36:19;3.60;;;0.90;;
71646;SDS011;59706;45.634;11.704;2023-04-25T12:38:47;3.20;;;0.80;;
71646;SDS011;59706;45.634;11.704;2023-04-25T12:41:15;3.80;;;1.00;;
71646;SDS011;59706;45.634;11.704;2023-04-25T12:43:42;3.30;;;0.90;;
71646;SDS011;59706;45.634;11.704;2023-04-25T12:46:10;3.00;;;0.70;;
71646;SDS011;59706;45.634;11.704;2023-04-25T12:48:37;3.70;;;0.90;;
71646;SDS011;59706;45.634;11.704;2023-04-25T12:51:04;4.20;;;1.10;;
71646;SDS011;59706;45.634;11.704;2023-04-25T12:53:32;3.50;;;0.70;;
71646;SDS011;59706;45.634;11.704;2023-04-25T12:56:03;3.60;;;1.00;;
71646;SDS011;59706;45.634;11.704;2023-04-25T12:58:33;4.00;;;1.10;;
71646;SDS011;59706;45.634;11.704;2023-04-25T13:01:00;3.70;;;0.80;;
71646;SDS011;59706;45.634;11.704;2023-04-25T13:03:27;3.20;;;1.00;;
71646;SDS011;59706;45.634;11.704;2023-04-25T13:05:54;2.70;;;0.60;;
71646;SDS011;59706;45.634;11.704;2023-04-25T13:08:22;2.60;;;0.60;;
71646;SDS011;59706;45.634;11.704;2023-04-25T13:10:49;4.40;;;0.80;;
71646;SDS011;59706;45.634;11.704;2023-04-25T13:13:17;3.80;;;1.10;;
71646;SDS011;59706;45.634;11.704;2023-04-25T13:15:44;4.00;;;1.20;;
71646;SDS011;59706;45.634;11.704;2023-04-25T13:18:12;5.50;;;1.50;;
71646;SDS011;59706;45.634;11.704;2023-04-25T13:20:40;4.60;;;1.40;;
71646;SDS011;59706;45.634;11.704;2023-04-25T13:23:07;4.30;;;1.30;;
71646;SDS011;59706;45.634;11.704;2023-04-25T13:25:35;5.60;;;1.50;;
71646;SDS011;59706;45.634;11.704;2023-04-25T13:28:02;4.60;;;1.50;;
71646;SDS011;59706;45.634;11.704;2023-04-25T13:30:30;4.40;;;1.20;;
71646;SDS011;59706;45.634;11.704;2023-04-25T13:32:57;4.40;;;1.30;;
71646;SDS011;59706;45.634;11.704;2023-04-25T13:35:30;6.30;;;1.40;;
71646;SDS011;59706;45.634;11.704;2023-04-25T13:37:57;4.50;;;1.20;;
71646;SDS011;59706;45.634;11.704;2023-04-25T13:40:25;5.70;;;1.30;;
71646;SDS011;59706;45.634;11.704;2023-04-25T13:42:53;5.20;;;1.10;;
71646;SDS011;59706;45.634;11.704;2023-04-25T13:45:20;4.30;;;1.10;;
71646;SDS011;59706;45.634;11.704;2023-04-25T13:47:48;4.90;;;1.50;;
71646;SDS011;59706;45.634;11.704;2023-04-25T13:50:15;4.80;;;1.50;;
71646;SDS011;59706;45.634;11.704;2023-04-25T13:52:42;4.20;;;1.20;;
71646;SDS011;59706;45.634;11.704;2023-04-25T13:55:10;4.70;;;1.30;;
71646;SDS011;59706;45.634;11.704;2023-04-25T13:57:37;5.00;;;1.40;;
71646;SDS011;59706;45.634;11.704;2023-04-25T14:00:07;4.70;;;1.30;;
71646;SDS011;59706;45.634;11.704;2023-04-25T14:02:36;5.40;;;1.40;;
71646;SDS011;59706;45.634;11.704;2023-04-25T14:05:04;4.50;;;1.50;;
71646;SDS011;59706;45.634;11.704;2023-04-25T14:07:34;4.20;;;1.20;;
71646;SDS011;59706;45.634;11.704;2023-04-25T14:10:02;4.50;;;1.40;;
71646;SDS011;59706;45.634;11.704;2023-04-25T14:12:30;4.60;;;1.50;;
71646;SDS011;59706;45.634;11.704;2023-04-25T14:14:57;5.30;;;1.80;;
71646;SDS011;59706;45.634;11.704;2023-04-25T14:17:24;4.70;;;1.30;;
71646;SDS011;59706;45.634;11.704;2023-04-25T14:19:51;4.70;;;1.70;;
71646;SDS011;59706;45.634;11.704;2023-04-25T14:22:18;6.00;;;1.60;;
71646;SDS011;59706;45.634;11.704;2023-04-25T14:24:45;4.50;;;1.10;;
71646;SDS011;59706;45.634;11.704;2023-04-25T14:27:13;5.80;;;1.30;;
71646;SDS011;59706;45.634;11.704;2023-04-25T14:29:40;5.10;;;1.50;;
71646;SDS011;59706;45.634;11.704;2023-04-25T14:32:08;5.00;;;1.40;;
71646;SDS011;59706;45.634;11.704;2023-04-25T14:34:36;4.40;;;1.30;;
71646;SDS011;59706;45.634;11.704;2023-04-25T14:37:04;6.50;;;1.40;;
71646;SDS011;59706;45.634;11.704;2023-04-25T14:39:30;4.80;;;1.40;;
71646;SDS011;59706;45.634;11.704;2023-04-25T14:41:57;5.10;;;1.70;;
71646;SDS011;59706;45.634;11.704;2023-04-25T14:44:25;5.40;;;1.80;;
71646;SDS011;59706;45.634;11.704;2023-04-25T14:46:53;4.40;;;1.30;;
71646;SDS011;59706;45.634;11.704;2023-04-25T14:49:20;4.80;;;1.60;;
71646;SDS011;59706;45.634;11.704;2023-04-25T14:51:47;5.20;;;1.70;;
71646;SDS011;59706;45.634;11.704;2023-04-25T14:54:15;5.10;;;1.60;;
71646;SDS011;59706;45.634;11.704;2023-04-25T14:56:43;5.30;;;1.30;;
71646;SDS011;59706;45.634;11.704;2023-04-25T14:59:10;5.10;;;1.20;;
71646;SDS011;59706;45.634;11.704;2023-04-25T15:01:38;5.40;;;1.10;;
71646;SDS011;59706;45.634;11.704;2023-04-25T15:04:06;4.50;;;1.10;;
71646;SDS011;59706;45.634;11.704;2023-04-25T15:06:33;4.70;;;1.40;;
71646;SDS011;59706;45.634;11.704;2023-04-25T15:09:00;5.50;;;1.40;;
71646;SDS011;59706;45.634;11.704;2023-04-25T15:11:28;4.60;;;1.30;;
71646;SDS011;59706;45.634;11.704;2023-04-25T15:13:55;3.60;;;0.90;;
71646;SDS011;59706;45.634;11.704;2023-04-25T15:16:23;5.30;;;1.00;;
71646;SDS011;59706;45.634;11.704;2023-04-25T15:18:51;4.20;;;0.90;;
71646;SDS011;59706;45.634;11.704;2023-04-25T15:21:18;4.10;;;1.10;;
71646;SDS011;59706;45.634;11.704;2023-04-25T15:23:46;4.60;;;1.30;;
71646;SDS011;59706;45.634;11.704;2023-04-25T15:26:14;4.90;;;1.10;;
71646;SDS011;59706;45.634;11.704;2023-04-25T15:28:41;5.30;;;1.50;;
71646;SDS011;59706;45.634;11.704;2023-04-25T15:31:09;5.00;;;1.50;;
71646;SDS011;59706;45.634;11.704;2023-04-25T15:33:37;5.40;;;1.40;;
71646;SDS011;59706;45.634;11.704;2023-04-25T15:36:05;5.70;;;1.80;;
71646;SDS011;59706;45.634;11.704;2023-04-25T15:38:35;5.20;;;1.50;;
71646;SDS011;59706;45.634;11.704;2023-04-25T15:41:03;6.60;;;2.00;;
71646;SDS011;59706;45.634;11.704;2023-04-25T15:43:31;4.80;;;1.20;;
71646;SDS011;59706;45.634;11.704;2023-04-25T15:46:03;4.80;;;1.30;;
71646;SDS011;59706;45.634;11.704;2023-04-25T15:48:32;7.10;;;1.30;;
71646;SDS011;59706;45.634;11.704;2023-04-25T15:50:59;5.60;;;1.80;;
71646;SDS011;59706;45.634;11.704;2023-04-25T15:53:27;6.00;;;1.70;;
71646;SDS011;59706;45.634;11.704;2023-04-25T15:55:54;5.10;;;1.30;;
71646;SDS011;59706;45.634;11.704;2023-04-25T15:58:22;5.60;;;1.70;;
71646;SDS011;59706;45.634;11.704;2023-04-25T16:00:49;6.30;;;1.40;;
71646;SDS011;59706;45.634;11.704;2023-04-25T16:03:16;5.40;;;1.60;;
71646;SDS011;59706;45.634;11.704;2023-04-25T16:05:44;5.40;;;1.40;;
71646;SDS011;59706;45.634;11.704;2023-04-25T16:08:11;5.10;;;1.50;;
71646;SDS011;59706;45.634;11.704;2023-04-25T16:10:39;5.30;;;1.50;;
71646;SDS011;59706;45.634;11.704;2023-04-25T16:13:07;6.10;;;1.40;;
71646;SDS011;59706;45.634;11.704;2023-04-25T16:15:34;5.20;;;1.30;;
71646;SDS011;59706;45.634;11.704;2023-04-25T16:18:02;4.10;;;1.00;;
71646;SDS011;59706;45.634;11.704;2023-04-25T16:20:28;4.30;;;0.80;;
71646;SDS011;59706;45.634;11.704;2023-04-25T16:22:55;3.70;;;1.00;;
71646;SDS011;59706;45.634;11.704;2023-04-25T16:25:23;4.50;;;1.00;;
71646;SDS011;59706;45.634;11.704;2023-04-25T16:27:51;4.70;;;1.00;;
71646;SDS011;59706;45.634;11.704;2023-04-25T16:30:19;4.10;;;1.00;;
71646;SDS011;59706;45.634;11.704;2023-04-25T16:32:46;3.80;;;0.90;;
71646;SDS011;59706;45.634;11.704;2023-04-25T16:35:14;4.10;;;0.80;;
71646;SDS011;59706;45.634;11.704;2023-04-25T16:37:41;4.20;;;1.00;;
71646;SDS011;59706;45.634;11.704;2023-04-25T16:40:09;5.00;;;0.90;;
71646;SDS011;59706;45.634;11.704;2023-04-25T16:42:37;3.80;;;0.80;;
71646;SDS011;59706;45.634;11.704;2023-04-25T16:45:06;4.10;;;1.00;;
71646;SDS011;59706;45.634;11.704;2023-04-25T16:47:35;5.00;;;1.20;;
71646;SDS011;59706;45.634;11.704;2023-04-25T16:50:03;3.90;;;1.20;;
71646;SDS011;59706;45.634;11.704;2023-04-25T16:52:34;3.90;;;0.90;;
71646;SDS011;59706;45.634;11.704;2023-04-25T16:55:01;3.40;;;0.90;;
71646;SDS011;59706;45.634;11.704;2023-04-25T16:57:29;3.80;;;1.10;;
71646;SDS011;59706;45.634;11.704;2023-04-25T16:59:56;4.30;;;1.10;;
71646;SDS011;59706;45.634;11.704;2023-04-25T17:02:24;6.90;;;2.20;;
71646;SDS011;59706;45.634;11.704;2023-04-25T17:04:50;5.50;;;2.20;;
71646;SDS011;59706;45.634;11.704;2023-04-25T17:07:18;12.60;;;11.30;;
71646;SDS011;59706;45.634;11.704;2023-04-25T17:09:49;7.70;;;3.90;;
71646;SDS011;59706;45.634;11.704;2023-04-25T17:12:17;4.60;;;1.70;;
71646;SDS011;59706;45.634;11.704;2023-04-25T17:14:47;4.60;;;1.20;;
71646;SDS011;59706;45.634;11.704;2023-04-25T17:17:15;6.60;;;3.30;;
71646;SDS011;59706;45.634;11.704;2023-04-25T17:19:43;4.80;;;1.70;;
71646;SDS011;59706;45.634;11.704;2023-04-25T17:22:11;4.40;;;1.10;;
71646;SDS011;59706;45.634;11.704;2023-04-25T17:24:38;6.10;;;1.70;;
71646;SDS011;59706;45.634;11.704;2023-04-25T17:27:06;5.60;;;1.40;;
71646;SDS011;59706;45.634;11.704;2023-04-25T17:29:33;5.00;;;1.40;;
71646;SDS011;59706;45.634;11.704;2023-04-25T17:32:00;4.90;;;1.30;;
71646;SDS011;59706;45.634;11.704;2023-04-25T17:34:27;5.40;;;1.60;;
71646;SDS011;59706;45.634;11.704;2023-04-25T17:36:56;6.60;;;1.70;;
71646;SDS011;59706;45.634;11.704;2023-04-25T17:39:23;5.80;;;1.60;;